createdAt,value
2022-11-20T00:01:29.068Z,5.70
2022-11-20T00:03:58.849Z,5.70
2022-11-20T00:06:27.742Z,5.50
2022-11-20T00:08:59.600Z,6.30
2022-11-20T00:11:28.973Z,5.90
2022-11-20T00:14:00.552Z,6.30
2022-11-20T00:16:30.754Z,5.67
2022-11-20T00:18:57.543Z,5.30
2022-11-20T00:21:27.072Z,5.90
2022-11-20T00:23:56.079Z,5.70
2022-11-20T00:26:24.882Z,6.43
2022-11-20T00:28:54.121Z,6.13
2022-11-20T00:31:21.778Z,5.20
2022-11-20T00:33:49.188Z,5.93
2022-11-20T00:36:18.720Z,5.40
2022-11-20T00:38:46.576Z,5.77
2022-11-20T00:41:16.076Z,5.80
2022-11-20T00:43:43.341Z,5.57
2022-11-20T00:46:18.543Z,6.20
2022-11-20T00:48:46.360Z,5.50
2022-11-20T00:51:15.727Z,6.03
2022-11-20T00:53:43.261Z,5.90
2022-11-20T00:56:15.459Z,5.83
2022-11-20T00:58:44.147Z,5.77
2022-11-20T01:01:16.827Z,5.73
2022-11-20T01:03:46.024Z,5.67
2022-11-20T01:06:19.016Z,6.37
2022-11-20T01:08:46.721Z,5.77
2022-11-20T01:11:19.877Z,5.93
2022-11-20T01:13:48.234Z,5.90
2022-11-20T01:16:19.925Z,5.40
2022-11-20T01:18:49.435Z,6.10
2022-11-20T01:21:28.035Z,5.60
2022-11-20T01:23:55.504Z,5.93
2022-11-20T01:26:33.631Z,5.53
2022-11-20T01:29:01.247Z,5.93
2022-11-20T01:31:34.684Z,5.57
2022-11-20T01:34:06.901Z,5.97
2022-11-20T01:36:36.586Z,6.07
2022-11-20T01:39:11.655Z,6.20
2022-11-20T01:41:57.240Z,5.90
2022-11-20T01:45:00.618Z,6.53
2022-11-20T01:47:36.047Z,5.40
2022-11-20T01:50:23.652Z,5.93
2022-11-20T01:52:52.523Z,6.97
2022-11-20T01:55:26.223Z,6.57
2022-11-20T01:57:53.597Z,6.47
2022-11-20T02:00:22.473Z,6.97
2022-11-20T02:03:01.924Z,6.60
2022-11-20T02:05:47.590Z,6.83
2022-11-20T02:08:15.181Z,6.87
2022-11-20T02:10:42.206Z,6.90
2022-11-20T02:13:28.215Z,6.60
2022-11-20T02:15:55.720Z,6.77
2022-11-20T02:18:22.932Z,6.67
2022-11-20T02:20:53.861Z,6.83
2022-11-20T02:23:38.858Z,7.17
2022-11-20T02:26:10.077Z,6.43
2022-11-20T02:28:37.099Z,6.37
2022-11-20T02:31:04.558Z,6.30
2022-11-20T02:33:31.601Z,6.37
2022-11-20T02:35:58.546Z,6.20
2022-11-20T02:38:25.628Z,6.07
2022-11-20T02:40:55.537Z,6.67
2022-11-20T02:43:23.618Z,7.10
2022-11-20T02:45:50.408Z,6.60
2022-11-20T02:48:17.567Z,6.83
2022-11-20T02:50:44.340Z,6.53
2022-11-20T02:53:11.066Z,6.80
2022-11-20T02:55:38.113Z,6.47
2022-11-20T02:58:04.800Z,7.03
2022-11-20T03:00:32.891Z,6.27
2022-11-20T03:03:00.576Z,6.63
2022-11-20T03:05:27.353Z,6.47
2022-11-20T03:07:54.358Z,7.00
2022-11-20T03:10:21.170Z,6.57
2022-11-20T03:12:48.078Z,6.83
2022-11-20T03:15:14.840Z,6.37
2022-11-20T03:17:42.095Z,6.97
2022-11-20T03:20:10.090Z,6.67
2022-11-20T03:22:36.993Z,6.73
2022-11-20T03:25:04.726Z,6.37
2022-11-20T03:27:35.504Z,6.60
2022-11-20T03:30:02.822Z,6.03
2022-11-20T03:32:29.648Z,6.27
2022-11-20T03:34:56.604Z,5.97
2022-11-20T03:37:23.379Z,7.33
2022-11-20T03:39:50.448Z,6.47
2022-11-20T03:42:35.557Z,6.20
2022-11-20T03:45:02.380Z,6.37
2022-11-20T03:47:29.509Z,6.40
2022-11-20T03:49:56.445Z,6.50
2022-11-20T03:52:23.229Z,6.37
2022-11-20T03:54:50.164Z,6.23
2022-11-20T03:57:17.074Z,6.43
2022-11-20T03:59:43.770Z,6.27
2022-11-20T04:02:10.704Z,6.50
2022-11-20T04:04:37.495Z,6.57
2022-11-20T04:07:04.845Z,6.20
2022-11-20T04:09:33.875Z,6.60
2022-11-20T04:12:01.626Z,6.30
2022-11-20T04:14:28.554Z,6.23
2022-11-20T04:16:55.561Z,6.53
2022-11-20T04:19:22.849Z,6.37
2022-11-20T04:21:50.004Z,6.60
2022-11-20T04:24:16.859Z,6.93
2022-11-20T04:26:43.654Z,6.70
2022-11-20T04:29:12.667Z,6.53
2022-11-20T04:31:39.578Z,6.60
2022-11-20T04:34:08.090Z,6.30
2022-11-20T04:36:36.058Z,6.80
2022-11-20T04:39:05.783Z,6.77
2022-11-20T04:41:35.201Z,7.07
2022-11-20T04:44:04.364Z,7.00
2022-11-20T04:46:34.653Z,6.60
2022-11-20T04:49:01.982Z,6.47
2022-11-20T04:51:29.239Z,6.73
2022-11-20T04:53:56.607Z,6.73
2022-11-20T04:56:23.634Z,6.90
2022-11-20T04:58:50.517Z,6.67
2022-11-20T05:01:23.435Z,6.93
2022-11-20T05:03:50.873Z,6.93
2022-11-20T05:06:20.638Z,6.87
2022-11-20T05:08:47.646Z,6.43
2022-11-20T05:11:20.400Z,7.00
2022-11-20T05:13:47.599Z,6.70
2022-11-20T05:16:24.880Z,6.80
2022-11-20T05:18:52.988Z,6.40
2022-11-20T05:21:20.014Z,6.33
2022-11-20T05:23:47.638Z,6.63
2022-11-20T05:26:17.348Z,6.43
2022-11-20T05:28:44.820Z,6.40
2022-11-20T05:31:14.082Z,6.63
2022-11-20T05:33:42.462Z,6.40
2022-11-20T05:36:10.403Z,7.27
2022-11-20T05:38:37.283Z,7.03
2022-11-20T05:41:06.378Z,6.93
2022-11-20T05:43:38.058Z,6.43
2022-11-20T05:46:07.195Z,6.10
2022-11-20T05:48:35.074Z,6.53
2022-11-20T05:51:03.711Z,6.73
2022-11-20T05:53:30.884Z,6.93
2022-11-20T05:56:10.840Z,6.50
2022-11-20T05:58:38.383Z,6.50
2022-11-20T06:01:20.903Z,6.83
2022-11-20T06:03:49.222Z,6.37
2022-11-20T06:06:17.232Z,6.67
2022-11-20T06:08:45.129Z,6.80
2022-11-20T06:11:14.016Z,6.70
2022-11-20T06:13:42.548Z,6.87
2022-11-20T06:16:10.987Z,6.63
2022-11-20T06:18:38.329Z,6.80
2022-11-20T06:21:20.078Z,7.33
2022-11-20T06:23:47.670Z,7.20
2022-11-20T06:26:21.044Z,7.30
2022-11-20T06:28:48.154Z,6.80
2022-11-20T06:31:17.500Z,6.77
2022-11-20T06:33:45.363Z,6.77
2022-11-20T06:36:14.784Z,7.03
2022-11-20T06:38:42.134Z,6.73
2022-11-20T06:41:12.557Z,7.13
2022-11-20T06:43:39.787Z,7.43
2022-11-20T06:46:07.073Z,7.17
2022-11-20T06:48:33.972Z,6.50
2022-11-20T06:51:00.688Z,6.87
2022-11-20T06:53:27.678Z,6.97
2022-11-20T06:55:57.624Z,7.10
2022-11-20T06:58:26.939Z,7.43
2022-11-20T07:00:53.992Z,7.60
2022-11-20T07:03:21.060Z,7.40
2022-11-20T07:05:48.121Z,7.13
2022-11-20T07:08:14.942Z,7.13
2022-11-20T07:10:41.721Z,7.10
2022-11-20T07:13:08.737Z,6.67
2022-11-20T07:15:35.506Z,7.37
2022-11-20T07:18:02.885Z,7.30
2022-11-20T07:20:29.924Z,7.17
2022-11-20T07:22:57.840Z,7.23
2022-11-20T07:25:29.012Z,8.33
2022-11-20T07:27:59.942Z,8.80
2022-11-20T07:30:28.480Z,8.13
2022-11-20T07:32:56.386Z,9.63
2022-11-20T07:35:24.591Z,8.83
2022-11-20T07:37:52.024Z,8.37
2022-11-20T07:40:19.355Z,8.70
2022-11-20T07:42:53.931Z,9.50
2022-11-20T07:45:22.655Z,8.60
2022-11-20T07:47:49.810Z,9.60
2022-11-20T07:50:17.116Z,10.30
2022-11-20T07:52:44.567Z,10.90
2022-11-20T07:55:11.913Z,10.77
2022-11-20T07:57:39.354Z,10.13
2022-11-20T08:00:10.897Z,11.47
2022-11-20T08:02:44.052Z,9.67
2022-11-20T08:05:11.519Z,10.00
2022-11-20T08:07:40.264Z,10.87
2022-11-20T08:10:08.907Z,9.97
2022-11-20T08:12:54.327Z,10.07
2022-11-20T08:15:21.542Z,9.97
2022-11-20T08:18:08.314Z,9.80
2022-11-20T08:20:36.279Z,9.67
2022-11-20T08:23:07.145Z,10.23
2022-11-20T08:25:35.815Z,10.17
2022-11-20T08:28:18.745Z,10.93
2022-11-20T08:30:47.595Z,10.43
2022-11-20T08:33:14.425Z,10.50
2022-11-20T08:35:42.639Z,11.30
2022-11-20T08:38:10.436Z,10.93
2022-11-20T08:40:37.301Z,11.17
2022-11-20T08:43:04.371Z,12.03
2022-11-20T08:45:34.617Z,11.13
2022-11-20T08:48:03.589Z,10.73
2022-11-20T08:50:33.296Z,11.07
2022-11-20T08:53:07.079Z,11.63
2022-11-20T08:55:36.730Z,10.23
2022-11-20T08:58:07.544Z,9.50
2022-11-20T09:00:35.558Z,9.57
2022-11-20T09:03:02.633Z,9.43
2022-11-20T09:05:29.792Z,9.63
2022-11-20T09:08:00.795Z,9.30
2022-11-20T09:10:28.337Z,8.90
2022-11-20T09:12:56.314Z,9.17
2022-11-20T09:15:24.622Z,8.23
2022-11-20T09:17:56.543Z,9.93
2022-11-20T09:20:23.627Z,9.97
2022-11-20T09:22:50.425Z,9.30
2022-11-20T09:25:17.511Z,9.17
2022-11-20T09:27:46.803Z,9.57
2022-11-20T09:30:17.551Z,9.33
2022-11-20T09:32:44.593Z,9.73
2022-11-20T09:35:12.030Z,9.07
2022-11-20T09:37:39.556Z,9.73
2022-11-20T09:40:07.678Z,8.90
2022-11-20T09:42:44.077Z,9.53
2022-11-20T09:45:23.248Z,9.03
2022-11-20T09:48:04.652Z,8.20
2022-11-20T09:50:37.442Z,9.43
2022-11-20T09:53:31.935Z,9.33
2022-11-20T09:56:01.793Z,8.53
2022-11-20T09:58:51.278Z,8.60
2022-11-20T10:01:20.754Z,8.80
2022-11-20T10:04:02.787Z,9.47
2022-11-20T10:06:43.086Z,9.10
2022-11-20T10:09:15.835Z,8.57
2022-11-20T10:12:06.809Z,9.83
2022-11-20T10:14:45.677Z,8.93
2022-11-20T10:17:31.318Z,8.57
2022-11-20T10:20:41.421Z,8.73
2022-11-20T10:23:26.029Z,8.37
2022-11-20T10:26:29.872Z,8.60
2022-11-20T10:29:19.243Z,9.20
2022-11-20T10:31:57.794Z,9.40
2022-11-20T10:34:47.806Z,9.37
2022-11-20T10:37:20.179Z,8.60
2022-11-20T10:40:30.142Z,9.00
2022-11-20T10:43:00.874Z,8.77
2022-11-20T10:45:30.664Z,9.03
2022-11-20T10:48:18.324Z,9.37
2022-11-20T10:51:06.869Z,9.10
2022-11-20T10:53:48.739Z,9.60
2022-11-20T10:56:41.513Z,9.87
2022-11-20T10:59:23.333Z,8.83
2022-11-20T11:01:50.644Z,9.63
2022-11-20T11:04:30.009Z,9.17
2022-11-20T11:07:14.616Z,9.20
2022-11-20T11:09:45.372Z,8.73
2022-11-20T11:12:12.908Z,9.70
2022-11-20T11:14:50.785Z,9.20
2022-11-20T11:17:31.271Z,9.93
2022-11-20T11:20:07.997Z,9.97
2022-11-20T11:22:45.737Z,9.37
2022-11-20T11:25:36.796Z,9.07
2022-11-20T11:28:18.397Z,9.57
2022-11-20T11:30:46.661Z,9.10
2022-11-20T11:33:21.118Z,9.03
2022-11-20T11:35:51.848Z,9.90
2022-11-20T11:38:28.148Z,9.13
2022-11-20T11:40:57.687Z,9.57
2022-11-20T11:43:49.677Z,9.23
2022-11-20T11:46:27.705Z,9.17
2022-11-20T11:49:06.535Z,10.03
2022-11-20T11:52:03.649Z,9.10
2022-11-20T11:54:37.608Z,8.90
2022-11-20T11:57:15.463Z,8.80
2022-11-20T12:00:03.575Z,9.30
2022-11-20T12:02:47.138Z,8.73
2022-11-20T12:05:24.970Z,9.50
2022-11-20T12:08:24.532Z,8.77
2022-11-20T12:11:11.378Z,8.30
2022-11-20T12:13:54.335Z,7.97
2022-11-20T12:16:21.743Z,8.63
2022-11-20T12:18:53.604Z,8.43
2022-11-20T12:21:24.818Z,8.80
2022-11-20T12:24:13.019Z,8.73
2022-11-20T12:26:54.240Z,8.77
2022-11-20T12:29:54.084Z,8.90
2022-11-20T12:32:47.256Z,8.63
2022-11-20T12:35:46.131Z,8.27
2022-11-20T12:38:21.986Z,8.83
2022-11-20T12:41:03.930Z,10.30
2022-11-20T12:43:57.509Z,10.40
2022-11-20T12:46:36.782Z,9.17
2022-11-20T12:49:32.732Z,10.03
2022-11-20T12:52:36.500Z,10.43
2022-11-20T12:55:12.175Z,10.37
2022-11-20T12:57:56.797Z,10.00
2022-11-20T13:00:25.394Z,9.63
2022-11-20T13:03:17.681Z,10.27
2022-11-20T13:06:00.604Z,10.13
2022-11-20T13:08:40.279Z,10.43
2022-11-20T13:11:18.109Z,10.20
2022-11-20T13:13:55.360Z,10.40
2022-11-20T13:16:49.503Z,9.50
2022-11-20T13:19:18.413Z,10.27
2022-11-20T13:21:47.935Z,9.43
2022-11-20T13:24:21.167Z,9.80
2022-11-20T13:26:48.462Z,10.67
2022-11-20T13:29:20.248Z,10.00
2022-11-20T13:31:49.031Z,10.17
2022-11-20T13:34:26.815Z,9.77
2022-11-20T13:36:56.213Z,9.27
2022-11-20T13:39:35.170Z,9.10
2022-11-20T13:42:19.533Z,8.90
2022-11-20T13:44:51.948Z,9.33
2022-11-20T13:47:27.159Z,9.70
2022-11-20T13:49:55.989Z,9.70
2022-11-20T13:52:56.970Z,8.97
2022-11-20T13:55:53.129Z,9.63
2022-11-20T13:58:33.426Z,10.30
2022-11-20T14:01:20.596Z,10.70
2022-11-20T14:04:05.631Z,10.63
2022-11-20T14:06:42.227Z,11.37
2022-11-20T14:09:28.273Z,10.80
2022-11-20T14:11:55.516Z,10.13
2022-11-20T14:14:30.959Z,11.27
2022-11-20T14:17:23.138Z,11.67
2022-11-20T14:19:52.632Z,11.27
2022-11-20T14:22:22.149Z,12.00
2022-11-20T14:25:07.206Z,11.63
2022-11-20T14:27:37.386Z,11.83
2022-11-20T14:30:05.645Z,14.57
2022-11-20T14:32:33.409Z,12.47
2022-11-20T14:35:07.973Z,12.20
2022-11-20T14:37:38.002Z,12.37
2022-11-20T14:40:27.559Z,11.03
2022-11-20T14:42:54.872Z,10.90
2022-11-20T14:45:23.191Z,11.10
2022-11-20T14:47:52.446Z,10.67
2022-11-20T14:50:27.123Z,11.97
2022-11-20T14:52:55.051Z,10.83
2022-11-20T14:55:37.307Z,11.60
2022-11-20T14:58:28.470Z,11.53
2022-11-20T15:01:02.570Z,11.37
2022-11-20T15:03:41.280Z,11.23
2022-11-20T15:06:12.114Z,10.50
2022-11-20T15:08:39.064Z,11.03
2022-11-20T15:11:19.207Z,11.90
2022-11-20T15:13:46.613Z,12.33
2022-11-20T15:16:22.439Z,12.83
2022-11-20T15:18:49.598Z,13.60
2022-11-20T15:21:18.878Z,12.77
2022-11-20T15:23:46.005Z,12.40
2022-11-20T15:26:19.460Z,11.10
2022-11-20T15:28:51.259Z,11.07
2022-11-20T15:31:22.417Z,12.17
2022-11-20T15:33:49.484Z,10.73
2022-11-20T15:36:16.575Z,10.37
2022-11-20T15:38:43.365Z,10.10
2022-11-20T15:41:11.310Z,10.07
2022-11-20T15:43:38.389Z,11.27
2022-11-20T15:46:10.148Z,10.73
2022-11-20T15:48:44.741Z,10.67
2022-11-20T15:51:32.986Z,10.50
2022-11-20T15:54:00.427Z,10.90
2022-11-20T15:56:27.490Z,11.53
2022-11-20T15:58:54.276Z,11.53
2022-11-20T16:01:26.194Z,11.67
2022-11-20T16:03:53.772Z,11.63
2022-11-20T16:06:20.790Z,11.47
2022-11-20T16:08:47.603Z,11.87
2022-11-20T16:11:16.932Z,11.37
2022-11-20T16:14:02.618Z,10.83
2022-11-20T16:16:35.798Z,10.07
2022-11-20T16:19:02.825Z,10.47
2022-11-20T16:21:32.895Z,10.00
2022-11-20T16:24:00.900Z,9.33
2022-11-20T16:26:28.975Z,8.90
2022-11-20T16:28:56.196Z,8.77
2022-11-20T16:31:23.173Z,8.93
2022-11-20T16:33:57.312Z,7.03
2022-11-20T16:36:26.094Z,6.30
2022-11-20T16:38:58.333Z,4.57
2022-11-20T16:41:26.884Z,4.50
2022-11-20T16:43:59.140Z,3.97
2022-11-20T16:46:28.554Z,4.50
2022-11-20T16:49:00.824Z,3.27
2022-11-20T16:51:30.405Z,3.00
2022-11-20T16:53:58.006Z,3.40
2022-11-20T16:56:27.335Z,2.70
2022-11-20T16:58:56.413Z,2.80
2022-11-20T17:01:24.721Z,2.40
2022-11-20T17:04:00.849Z,2.17
2022-11-20T17:06:30.495Z,2.17
2022-11-20T17:08:57.910Z,2.50
2022-11-20T17:11:25.903Z,2.13
2022-11-20T17:13:55.136Z,1.80
2022-11-20T17:16:23.848Z,2.00
2022-11-20T17:18:51.436Z,2.47
2022-11-20T17:21:19.225Z,2.03
2022-11-20T17:23:46.949Z,2.20
2022-11-20T17:26:16.516Z,2.80
2022-11-20T17:28:47.868Z,3.20
2022-11-20T17:31:17.646Z,2.70
2022-11-20T17:33:46.501Z,2.43
2022-11-20T17:36:18.093Z,2.27
2022-11-20T17:38:45.753Z,2.40
2022-11-20T17:41:15.483Z,2.97
2022-11-20T17:43:43.620Z,6.60
2022-11-20T17:46:14.066Z,6.47
2022-11-20T17:48:44.721Z,6.47
2022-11-20T17:51:13.751Z,7.03
2022-11-20T17:53:42.604Z,5.37
2022-11-20T17:56:28.510Z,5.60
2022-11-20T17:58:55.733Z,4.57
2022-11-20T18:01:23.810Z,4.57
2022-11-20T18:03:51.067Z,5.30
2022-11-20T18:06:20.695Z,5.00
2022-11-20T18:08:49.126Z,4.10
2022-11-20T18:11:18.748Z,4.13
2022-11-20T18:14:06.493Z,5.37
2022-11-20T18:16:36.234Z,6.03
2022-11-20T18:19:03.587Z,5.17
2022-11-20T18:21:31.552Z,4.43
2022-11-20T18:23:58.730Z,3.30
2022-11-20T18:26:26.109Z,2.50
2022-11-20T18:28:53.613Z,1.80
2022-11-20T18:31:21.176Z,1.10
2022-11-20T18:33:48.545Z,1.20
2022-11-20T18:36:20.572Z,1.00
2022-11-20T18:38:52.549Z,1.10
2022-11-20T18:41:39.831Z,0.90
2022-11-20T18:44:31.631Z,0.80
2022-11-20T18:46:58.681Z,0.70
2022-11-20T18:49:25.582Z,0.60
2022-11-20T18:51:52.638Z,0.70
2022-11-20T18:54:19.584Z,0.60
2022-11-20T18:56:46.478Z,0.50
2022-11-20T18:59:14.358Z,0.73
2022-11-20T19:01:41.442Z,0.60
2022-11-20T19:04:14.440Z,0.70
2022-11-20T19:06:43.109Z,0.60
2022-11-20T19:09:11.718Z,0.60
2022-11-20T19:11:42.404Z,0.60
2022-11-20T19:14:09.731Z,0.70
2022-11-20T19:16:36.793Z,0.70
2022-11-20T19:19:05.381Z,0.70
2022-11-20T19:21:33.277Z,0.60
2022-11-20T19:24:02.242Z,0.70
2022-11-20T19:26:29.623Z,0.60
2022-11-20T19:28:57.383Z,2.37
2022-11-20T19:31:28.922Z,1.67
2022-11-20T19:34:05.288Z,1.10
2022-11-20T19:36:34.778Z,1.10
2022-11-20T19:39:05.624Z,0.80
2022-11-20T19:41:33.927Z,0.80
2022-11-20T19:44:05.593Z,0.70
2022-11-20T19:46:34.525Z,0.80
2022-11-20T19:49:02.787Z,0.90
2022-11-20T19:51:33.204Z,1.10
2022-11-20T19:54:01.373Z,1.10
2022-11-20T19:56:29.673Z,0.83
2022-11-20T19:58:57.675Z,0.83
2022-11-20T20:01:27.687Z,0.80
2022-11-20T20:03:56.621Z,0.70
2022-11-20T20:06:26.319Z,0.90
2022-11-20T20:09:01.767Z,0.90
2022-11-20T20:11:31.290Z,0.80
2022-11-20T20:14:21.379Z,0.90
2022-11-20T20:16:48.562Z,0.70
2022-11-20T20:19:16.483Z,0.77
2022-11-20T20:21:44.079Z,0.70
2022-11-20T20:24:11.619Z,1.00
2022-11-20T20:26:38.510Z,1.47
2022-11-20T20:29:05.172Z,0.93
2022-11-20T20:31:33.500Z,1.00
2022-11-20T20:34:01.978Z,1.03
2022-11-20T20:36:32.630Z,0.90
2022-11-20T20:38:59.886Z,1.10
2022-11-20T20:41:27.165Z,1.47
2022-11-20T20:44:13.354Z,1.00
2022-11-20T20:46:41.295Z,1.00
2022-11-20T20:49:08.947Z,1.20
2022-11-20T20:51:36.769Z,1.00
2022-11-20T20:54:04.685Z,1.03
2022-11-20T20:56:31.931Z,1.17
2022-11-20T20:58:58.899Z,0.93
2022-11-20T21:01:28.931Z,1.10
2022-11-20T21:03:57.071Z,1.10
2022-11-20T21:06:24.693Z,1.00
2022-11-20T21:08:51.699Z,2.20
2022-11-20T21:11:20.293Z,1.60
2022-11-20T21:13:48.261Z,1.27
2022-11-20T21:16:17.300Z,1.50
2022-11-20T21:18:44.418Z,1.20
2022-11-20T21:21:34.817Z,1.33
2022-11-20T21:24:02.539Z,1.40
2022-11-20T21:26:29.796Z,1.77
2022-11-20T21:28:57.603Z,1.87
2022-11-20T21:31:26.822Z,1.40
2022-11-20T21:33:56.205Z,1.40
2022-11-20T21:36:27.617Z,1.33
2022-11-20T21:38:55.770Z,1.40
2022-11-20T21:41:24.102Z,1.40
2022-11-20T21:44:23.681Z,1.47
2022-11-20T21:46:40.796Z,1.40
2022-11-20T21:49:08.633Z,1.60
2022-11-20T21:51:35.641Z,1.43
2022-11-20T21:54:02.563Z,1.47
2022-11-20T21:56:29.560Z,1.50
2022-11-20T21:58:56.615Z,1.73
2022-11-20T22:01:26.395Z,1.70
2022-11-20T22:03:57.501Z,1.50
2022-11-20T22:06:32.788Z,1.60
2022-11-20T22:09:00.324Z,1.60
2022-11-20T22:11:28.093Z,1.60
2022-11-20T22:14:13.430Z,1.50
2022-11-20T22:16:40.869Z,1.43
2022-11-20T22:19:08.305Z,1.87
2022-11-20T22:21:35.419Z,1.60
2022-11-20T22:24:02.667Z,1.57
2022-11-20T22:26:37.337Z,1.73
2022-11-20T22:29:06.555Z,1.37
2022-11-20T22:31:33.865Z,1.80
2022-11-20T22:34:03.218Z,1.93
2022-11-20T22:36:31.580Z,1.53
2022-11-20T22:38:59.082Z,1.67
2022-11-20T22:41:28.276Z,1.60
2022-11-20T22:43:59.785Z,2.40
2022-11-20T22:46:28.580Z,1.90
2022-11-20T22:48:57.463Z,1.90
2022-11-20T22:51:33.030Z,1.67
2022-11-20T22:54:00.776Z,2.10
2022-11-20T22:56:27.862Z,1.70
2022-11-20T22:58:54.843Z,1.77
2022-11-20T23:01:33.358Z,1.73
2022-11-20T23:04:02.687Z,1.73
2022-11-20T23:06:30.761Z,2.90
2022-11-20T23:08:57.447Z,1.87
2022-11-20T23:11:27.066Z,1.60
2022-11-20T23:13:58.667Z,1.60
2022-11-20T23:16:27.446Z,1.50
2022-11-20T23:18:56.423Z,1.27
2022-11-20T23:21:23.571Z,1.80
2022-11-20T23:23:52.445Z,1.83
2022-11-20T23:26:24.651Z,1.73
2022-11-20T23:28:54.095Z,1.90
2022-11-20T23:31:21.506Z,1.80
2022-11-20T23:33:48.194Z,1.93
2022-11-20T23:36:15.179Z,2.40
2022-11-20T23:38:42.563Z,1.60
2022-11-20T23:41:09.459Z,1.40
2022-11-20T23:43:36.439Z,1.80
2022-11-20T23:46:04.262Z,1.57
2022-11-20T23:48:33.857Z,1.37
2022-11-20T23:51:01.435Z,1.50
2022-11-20T23:53:28.913Z,1.80
2022-11-20T23:56:01.835Z,1.57
2022-11-20T23:58:35.367Z,1.90
